createdAt,value
2023-04-11T00:01:50.065Z,9.82
2023-04-11T00:03:53.161Z,9.80
2023-04-11T00:05:54.760Z,9.75
2023-04-11T00:07:56.234Z,9.75
2023-04-11T00:09:57.751Z,9.73
2023-04-11T00:11:59.302Z,9.73
2023-04-11T00:14:00.755Z,9.73
2023-04-11T00:16:03.399Z,9.75
2023-04-11T00:18:06.646Z,9.73
2023-04-11T00:20:10.887Z,9.73
2023-04-11T00:22:13.820Z,9.72
2023-04-11T00:24:15.517Z,9.70
2023-04-11T00:26:17.053Z,9.67
2023-04-11T00:28:18.492Z,9.69
2023-04-11T00:30:19.976Z,9.69
2023-04-11T00:32:21.642Z,9.68
2023-04-11T00:34:23.081Z,9.68
2023-04-11T00:36:24.821Z,9.66
2023-04-11T00:38:26.545Z,9.65
2023-04-11T00:40:28.002Z,9.63
2023-04-11T00:42:29.470Z,9.61
2023-04-11T00:44:31.141Z,9.59
2023-04-11T00:46:33.663Z,9.56
2023-04-11T00:48:35.932Z,9.55
2023-04-11T00:50:41.231Z,9.52
2023-04-11T00:52:46.213Z,9.50
2023-04-11T00:54:48.259Z,9.47
2023-04-11T00:56:51.126Z,9.45
2023-04-11T00:58:53.217Z,9.43
2023-04-11T01:00:55.211Z,9.42
2023-04-11T01:02:56.818Z,9.39
2023-04-11T01:05:00.692Z,9.37
2023-04-11T01:07:06.312Z,9.38
2023-04-11T01:09:07.981Z,9.37
2023-04-11T01:11:10.994Z,9.35
2023-04-11T01:13:12.994Z,9.35
2023-04-11T01:15:15.003Z,9.38
2023-04-11T01:17:16.692Z,9.38
2023-04-11T01:19:23.489Z,9.41
2023-04-11T01:21:27.093Z,9.42
2023-04-11T01:23:28.828Z,9.46
2023-04-11T01:25:30.436Z,9.49
2023-04-11T01:27:34.037Z,9.52
2023-04-11T01:29:35.607Z,9.15
2023-04-11T01:31:37.103Z,8.79
2023-04-11T01:33:38.728Z,8.57
2023-04-11T01:35:40.572Z,8.34
2023-04-11T01:37:42.145Z,8.17
2023-04-11T01:39:43.626Z,8.01
2023-04-11T01:41:46.043Z,7.95
2023-04-11T01:43:47.855Z,7.85
2023-04-11T01:45:49.316Z,7.78
2023-04-11T01:47:52.009Z,7.70
2023-04-11T01:49:53.729Z,7.63
2023-04-11T01:51:55.804Z,7.60
2023-04-11T01:53:57.310Z,7.61
2023-04-11T01:55:58.961Z,7.58
2023-04-11T01:58:00.557Z,7.54
2023-04-11T02:00:02.101Z,7.61
2023-04-11T02:02:03.833Z,7.64
2023-04-11T02:04:05.652Z,7.60
2023-04-11T02:06:07.383Z,7.58
2023-04-11T02:08:08.904Z,7.53
2023-04-11T02:10:11.138Z,7.48
2023-04-11T02:12:12.642Z,7.51
2023-04-11T02:14:14.463Z,7.52
2023-04-11T02:16:17.997Z,7.51
2023-04-11T02:18:19.816Z,7.47
2023-04-11T02:20:24.232Z,7.39
2023-04-11T02:22:25.948Z,7.37
2023-04-11T02:24:30.501Z,7.35
2023-04-11T02:26:32.010Z,7.27
2023-04-11T02:28:33.533Z,7.24
2023-04-11T02:30:35.019Z,7.24
2023-04-11T02:32:40.416Z,7.20
2023-04-11T02:34:42.671Z,7.20
2023-04-11T02:36:45.790Z,7.15
2023-04-11T02:38:47.302Z,7.12
2023-04-11T02:40:48.804Z,7.10
2023-04-11T02:42:50.351Z,7.08
2023-04-11T02:44:55.505Z,7.03
2023-04-11T02:46:59.208Z,7.02
2023-04-11T02:49:00.676Z,7.02
2023-04-11T02:51:02.211Z,7.00
2023-04-11T02:53:03.658Z,6.96
2023-04-11T02:55:06.178Z,6.91
2023-04-11T02:57:07.692Z,6.88
2023-04-11T02:59:09.240Z,6.86
2023-04-11T03:01:12.008Z,6.89
2023-04-11T03:03:14.622Z,6.86
2023-04-11T03:05:16.292Z,6.85
2023-04-11T03:07:17.736Z,6.90
2023-04-11T03:09:19.955Z,6.90
2023-04-11T03:11:21.857Z,6.92
2023-04-11T03:13:23.365Z,6.86
2023-04-11T03:15:24.849Z,6.82
2023-04-11T03:17:26.340Z,6.78
2023-04-11T03:19:28.377Z,6.77
2023-04-11T03:21:31.544Z,6.76
2023-04-11T03:23:33.074Z,6.74
2023-04-11T03:25:34.561Z,6.75
2023-04-11T03:27:36.156Z,6.75
2023-04-11T03:29:37.658Z,6.72
2023-04-11T03:31:39.177Z,6.70
2023-04-11T03:33:40.779Z,6.67
2023-04-11T03:35:42.254Z,6.65
2023-04-11T03:37:43.749Z,6.65
2023-04-11T03:39:45.245Z,6.63
2023-04-11T03:41:46.750Z,6.64
2023-04-11T03:43:48.276Z,6.63
2023-04-11T03:45:51.624Z,6.64
2023-04-11T03:47:53.156Z,6.63
2023-04-11T03:49:54.651Z,6.66
2023-04-11T03:51:56.224Z,6.66
2023-04-11T03:53:57.809Z,6.69
2023-04-11T03:55:59.290Z,6.71
2023-04-11T03:58:00.937Z,6.76
2023-04-11T04:00:05.384Z,6.78
2023-04-11T04:02:07.047Z,6.78
2023-04-11T04:04:08.838Z,6.79
2023-04-11T04:06:10.796Z,6.80
2023-04-11T04:08:13.605Z,6.82
2023-04-11T04:10:15.381Z,6.84
2023-04-11T04:12:19.783Z,6.86
2023-04-11T04:14:21.278Z,6.89
2023-04-11T04:16:22.869Z,6.90
2023-04-11T04:18:24.434Z,6.90
2023-04-11T04:20:25.990Z,6.95
2023-04-11T04:22:29.749Z,6.97
2023-04-11T04:24:31.952Z,6.97
2023-04-11T04:26:33.486Z,6.98
2023-04-11T04:28:34.959Z,6.97
2023-04-11T04:30:38.180Z,6.98
2023-04-11T04:32:41.189Z,6.99
2023-04-11T04:34:49.240Z,7.00
2023-04-11T04:36:50.787Z,7.03
2023-04-11T04:38:52.525Z,7.07
2023-04-11T04:40:54.823Z,7.10
2023-04-11T04:42:58.992Z,7.12
2023-04-11T04:45:00.829Z,7.11
2023-04-11T04:47:02.290Z,7.11
2023-04-11T04:49:05.861Z,7.11
2023-04-11T04:51:07.812Z,7.07
2023-04-11T04:53:09.391Z,7.06
2023-04-11T04:55:11.340Z,7.04
2023-04-11T04:57:12.833Z,7.06
2023-04-11T04:59:16.128Z,7.05
2023-04-11T05:01:17.698Z,7.07
2023-04-11T05:03:20.931Z,7.05
2023-04-11T05:05:22.560Z,7.06
2023-04-11T05:07:24.072Z,7.05
2023-04-11T05:09:25.970Z,7.07
2023-04-11T05:11:28.669Z,7.04
2023-04-11T05:13:34.012Z,7.05
2023-04-11T05:15:35.494Z,7.04
2023-04-11T05:17:37.346Z,7.06
2023-04-11T05:19:38.834Z,7.04
2023-04-11T05:21:40.555Z,7.03
2023-04-11T05:23:42.066Z,7.04
2023-04-11T05:25:43.532Z,7.04
2023-04-11T05:27:45.029Z,7.03
2023-04-11T05:29:46.513Z,7.03
2023-04-11T05:31:47.993Z,7.02
2023-04-11T05:33:49.505Z,6.99
2023-04-11T05:35:51.882Z,7.01
2023-04-11T05:37:53.471Z,7.02
2023-04-11T05:39:56.352Z,7.01
2023-04-11T05:41:58.088Z,6.99
2023-04-11T05:43:59.641Z,6.99
2023-04-11T05:46:01.198Z,7.00
2023-04-11T05:48:04.142Z,7.00
2023-04-11T05:50:07.297Z,7.03
2023-04-11T05:52:08.875Z,7.06
2023-04-11T05:54:10.589Z,7.05
2023-04-11T05:56:12.932Z,7.06
2023-04-11T05:58:14.619Z,7.06
2023-04-11T06:00:17.178Z,7.05
2023-04-11T06:02:18.964Z,7.05
2023-04-11T06:04:21.069Z,7.07
2023-04-11T06:06:23.468Z,7.10
2023-04-11T06:08:24.985Z,7.12
2023-04-11T06:10:27.019Z,7.15
2023-04-11T06:12:28.711Z,7.18
2023-04-11T06:14:30.349Z,7.22
2023-04-11T06:16:33.511Z,7.27
2023-04-11T06:18:34.997Z,7.29
2023-04-11T06:20:36.499Z,7.34
2023-04-11T06:22:40.026Z,7.39
2023-04-11T06:24:42.742Z,7.46
2023-04-11T06:26:44.744Z,7.50
2023-04-11T06:28:46.223Z,7.52
2023-04-11T06:30:47.709Z,7.52
2023-04-11T06:32:49.266Z,7.51
2023-04-11T06:34:51.316Z,7.51
2023-04-11T06:36:52.816Z,7.52
2023-04-11T06:38:54.353Z,7.52
2023-04-11T06:40:56.457Z,7.55
2023-04-11T06:43:00.147Z,7.56
2023-04-11T06:45:01.933Z,7.58
2023-04-11T06:47:04.046Z,7.62
2023-04-11T06:49:07.279Z,7.62
2023-04-11T06:51:10.402Z,7.65
2023-04-11T06:53:11.913Z,7.67
2023-04-11T06:55:15.474Z,7.70
2023-04-11T06:57:17.971Z,7.72
2023-04-11T06:59:20.429Z,7.76
2023-04-11T07:01:25.512Z,7.81
2023-04-11T07:03:27.570Z,7.82
2023-04-11T07:05:29.157Z,7.84
2023-04-11T07:07:31.386Z,7.87
2023-04-11T07:09:32.916Z,7.90
2023-04-11T07:11:34.445Z,7.92
2023-04-11T07:13:35.938Z,7.95
2023-04-11T07:15:37.427Z,8.02
2023-04-11T07:17:38.925Z,8.06
2023-04-11T07:19:40.710Z,8.11
2023-04-11T07:21:42.887Z,8.16
2023-04-11T07:23:44.762Z,8.23
2023-04-11T07:25:46.227Z,8.30
2023-04-11T07:27:49.212Z,8.40
2023-04-11T07:29:50.692Z,8.49
2023-04-11T07:31:53.159Z,8.52
2023-04-11T07:33:55.032Z,8.52
2023-04-11T07:35:56.793Z,8.49
2023-04-11T07:37:58.352Z,8.49
2023-04-11T07:39:59.921Z,8.53
2023-04-11T07:42:01.905Z,8.56
2023-04-11T07:44:06.539Z,8.59
2023-04-11T07:46:08.069Z,8.58
2023-04-11T07:48:09.568Z,8.58
2023-04-11T07:50:11.351Z,8.61
2023-04-11T07:52:14.156Z,8.66
2023-04-11T07:54:16.683Z,8.71
2023-04-11T07:56:18.147Z,8.75
2023-04-11T07:58:19.764Z,8.78
2023-04-11T08:00:22.874Z,8.76
2023-04-11T08:02:24.661Z,8.75
2023-04-11T08:04:26.647Z,8.75
2023-04-11T08:06:29.131Z,8.78
2023-04-11T08:08:30.769Z,8.79
2023-04-11T08:10:32.858Z,8.82
2023-04-11T08:12:34.419Z,8.87
2023-04-11T08:14:36.657Z,8.92
2023-04-11T08:16:38.303Z,8.93
2023-04-11T08:18:42.448Z,8.96
2023-04-11T08:20:44.168Z,9.00
2023-04-11T08:22:46.768Z,9.07
2023-04-11T08:24:48.302Z,9.08
2023-04-11T08:26:49.813Z,9.13
2023-04-11T08:28:51.355Z,9.17
2023-04-11T08:30:55.301Z,9.25
2023-04-11T08:32:56.876Z,9.25
2023-04-11T08:34:58.421Z,9.26
2023-04-11T08:36:59.961Z,9.30
2023-04-11T08:39:01.448Z,9.33
2023-04-11T08:41:03.049Z,9.34
2023-04-11T08:43:10.125Z,9.31
2023-04-11T08:45:12.247Z,9.29
2023-04-11T08:47:15.975Z,9.29
2023-04-11T08:49:17.712Z,9.31
2023-04-11T08:51:23.775Z,9.33
2023-04-11T08:53:27.006Z,9.35
2023-04-11T08:55:28.832Z,9.39
2023-04-11T08:57:34.898Z,9.46
2023-04-11T08:59:36.510Z,9.55
2023-04-11T09:01:40.745Z,9.63
2023-04-11T09:03:52.165Z,9.70
2023-04-11T09:05:54.445Z,9.76
2023-04-11T09:07:57.328Z,9.74
2023-04-11T09:10:18.317Z,9.71
2023-04-11T09:12:25.791Z,9.68
2023-04-11T09:14:28.600Z,9.79
2023-04-11T09:16:30.168Z,9.90
2023-04-11T09:18:33.400Z,9.93
2023-04-11T09:20:34.952Z,9.87
2023-04-11T09:22:36.577Z,9.79
2023-04-11T09:24:38.261Z,9.62
2023-04-11T09:26:39.720Z,9.49
2023-04-11T09:28:53.721Z,9.36
2023-04-11T09:30:56.422Z,9.23
2023-04-11T09:32:58.699Z,9.18
2023-04-11T09:35:15.741Z,9.22
2023-04-11T09:37:17.358Z,9.24
2023-04-11T09:39:19.815Z,9.19
2023-04-11T09:41:36.368Z,9.14
2023-04-11T09:43:51.978Z,9.15
2023-04-11T09:46:10.570Z,9.13
2023-04-11T09:48:13.026Z,9.23
2023-04-11T09:50:15.638Z,9.27
2023-04-11T09:52:18.454Z,9.39
2023-04-11T09:54:23.030Z,9.54
2023-04-11T09:56:26.576Z,9.62
2023-04-11T09:58:31.604Z,9.62
2023-04-11T10:00:33.515Z,9.28
2023-04-11T10:02:35.152Z,8.75
2023-04-11T10:04:38.421Z,8.26
2023-04-11T10:06:57.603Z,7.94
2023-04-11T10:09:12.816Z,7.80
2023-04-11T10:11:14.661Z,7.82
2023-04-11T10:13:38.784Z,8.03
2023-04-11T10:16:09.051Z,8.32
2023-04-11T10:18:12.539Z,8.68
2023-04-11T10:20:39.072Z,9.02
2023-04-11T10:22:40.571Z,9.33
2023-04-11T10:25:20.885Z,9.59
2023-04-11T10:27:47.475Z,9.52
2023-04-11T10:29:51.544Z,9.22
2023-04-11T10:32:12.709Z,8.92
2023-04-11T10:34:14.719Z,8.76
2023-04-11T10:36:16.218Z,8.73
2023-04-11T10:38:48.775Z,8.71
2023-04-11T10:41:19.151Z,8.84
2023-04-11T10:43:21.637Z,9.06
2023-04-11T10:45:26.958Z,9.29
2023-04-11T10:47:29.476Z,9.63
2023-04-11T10:49:34.934Z,9.95
2023-04-11T10:51:36.577Z,10.14
2023-04-11T10:53:38.492Z,10.33
2023-04-11T10:55:48.629Z,10.53
2023-04-11T10:58:09.784Z,10.71
2023-04-11T11:00:14.465Z,10.82
2023-04-11T11:02:16.833Z,11.10
2023-04-11T11:04:18.825Z,11.35
2023-04-11T11:06:21.326Z,11.59
2023-04-11T11:08:38.022Z,11.86
2023-04-11T11:10:41.989Z,11.74
2023-04-11T11:12:54.653Z,11.69
2023-04-11T11:14:56.218Z,11.47
2023-04-11T11:16:57.782Z,11.54
2023-04-11T11:18:59.606Z,11.81
2023-04-11T11:21:01.372Z,12.22
2023-04-11T11:23:05.039Z,12.30
2023-04-11T11:25:09.786Z,12.19
2023-04-11T11:27:22.513Z,12.05
2023-04-11T11:29:50.888Z,12.33
2023-04-11T11:31:53.382Z,12.65
2023-04-11T11:33:58.287Z,13.02
2023-04-11T11:36:07.329Z,13.33
2023-04-11T11:38:09.039Z,13.11
2023-04-11T11:40:14.132Z,12.71
2023-04-11T11:42:15.978Z,12.09
2023-04-11T11:44:30.790Z,11.21
2023-04-11T11:46:35.661Z,10.80
2023-04-11T11:48:37.219Z,10.84
2023-04-11T11:50:38.694Z,11.01
2023-04-11T11:52:43.420Z,11.26
2023-04-11T11:54:46.461Z,11.59
2023-04-11T11:56:52.765Z,12.26
2023-04-11T11:58:54.360Z,12.93
2023-04-11T12:00:56.218Z,13.42
2023-04-11T12:02:59.846Z,13.47
2023-04-11T12:05:05.034Z,13.36
2023-04-11T12:07:11.412Z,13.35
2023-04-11T12:09:13.163Z,13.14
2023-04-11T12:11:15.834Z,12.99
2023-04-11T12:13:23.445Z,13.04
2023-04-11T12:15:25.093Z,12.90
2023-04-11T12:17:33.555Z,12.85
2023-04-11T12:19:36.332Z,12.60
2023-04-11T12:21:37.837Z,12.26
2023-04-11T12:23:39.293Z,12.29
2023-04-11T12:25:41.165Z,12.32
2023-04-11T12:27:44.410Z,12.26
2023-04-11T12:29:46.737Z,12.19
2023-04-11T12:31:48.713Z,12.12
2023-04-11T12:33:50.277Z,12.02
2023-04-11T12:35:51.764Z,11.82
2023-04-11T12:37:53.271Z,11.67
2023-04-11T12:39:54.903Z,11.50
2023-04-11T12:41:56.450Z,11.54
2023-04-11T12:44:01.537Z,11.48
2023-04-11T12:46:03.022Z,11.04
2023-04-11T12:48:04.773Z,10.75
2023-04-11T12:50:07.214Z,10.44
2023-04-11T12:52:09.280Z,9.93
2023-04-11T12:54:10.766Z,9.24
2023-04-11T12:56:12.224Z,8.42
2023-04-11T12:58:13.707Z,7.89
2023-04-11T13:00:16.632Z,7.55
2023-04-11T13:02:22.130Z,7.34
2023-04-11T13:04:23.915Z,7.23
2023-04-11T13:06:26.035Z,7.17
2023-04-11T13:08:28.386Z,7.18
2023-04-11T13:10:29.938Z,7.18
2023-04-11T13:12:31.561Z,7.12
2023-04-11T13:14:33.135Z,7.16
2023-04-11T13:16:34.646Z,7.21
2023-04-11T13:18:36.115Z,7.36
2023-04-11T13:20:37.604Z,7.48
2023-04-11T13:22:41.163Z,7.65
2023-04-11T13:24:42.669Z,7.80
2023-04-11T13:26:45.037Z,7.91
2023-04-11T13:28:46.637Z,7.96
2023-04-11T13:30:48.158Z,8.02
2023-04-11T13:32:49.668Z,8.13
2023-04-11T13:34:51.276Z,8.18
2023-04-11T13:36:52.858Z,8.30
2023-04-11T13:38:56.162Z,8.40
2023-04-11T13:40:57.769Z,8.60
2023-04-11T13:42:59.223Z,8.81
2023-04-11T13:45:00.720Z,8.96
2023-04-11T13:47:03.624Z,9.04
2023-04-11T13:49:06.192Z,9.11
2023-04-11T13:51:08.020Z,9.24
2023-04-11T13:53:09.889Z,9.38
2023-04-11T13:55:11.372Z,9.48
2023-04-11T13:57:12.906Z,9.69
2023-04-11T13:59:14.370Z,9.88
2023-04-11T14:01:16.114Z,10.04
2023-04-11T14:03:17.951Z,10.08
2023-04-11T14:05:19.594Z,10.06
2023-04-11T14:07:21.127Z,10.13
2023-04-11T14:09:22.638Z,10.26
2023-04-11T14:11:24.131Z,10.42
2023-04-11T14:13:25.913Z,10.66
2023-04-11T14:15:27.477Z,10.79
2023-04-11T14:17:29.856Z,10.78
2023-04-11T14:19:31.425Z,10.71
2023-04-11T14:21:32.959Z,10.71
2023-04-11T14:23:34.559Z,10.71
2023-04-11T14:25:36.203Z,10.72
2023-04-11T14:27:40.527Z,10.73
2023-04-11T14:29:42.274Z,10.79
2023-04-11T14:31:44.073Z,10.76
2023-04-11T14:33:45.757Z,10.74
2023-04-11T14:35:47.365Z,10.82
2023-04-11T14:37:49.586Z,10.75
2023-04-11T14:39:51.174Z,10.62
2023-04-11T14:41:52.662Z,10.49
2023-04-11T14:43:54.199Z,10.37
2023-04-11T14:45:57.569Z,10.27
2023-04-11T14:47:59.255Z,9.99
2023-04-11T14:50:00.978Z,9.70
2023-04-11T14:52:02.940Z,9.61
2023-04-11T14:54:04.579Z,9.63
2023-04-11T14:56:06.687Z,9.88
2023-04-11T14:58:08.250Z,10.08
2023-04-11T15:00:17.926Z,10.23
2023-04-11T15:02:19.576Z,10.29
2023-04-11T15:04:21.287Z,10.26
2023-04-11T15:06:22.854Z,10.24
2023-04-11T15:08:24.377Z,10.32
2023-04-11T15:10:26.347Z,10.55
2023-04-11T15:12:27.893Z,10.63
2023-04-11T15:14:29.582Z,10.58
2023-04-11T15:16:31.424Z,10.44
2023-04-11T15:18:33.122Z,10.27
2023-04-11T15:20:34.620Z,10.12
2023-04-11T15:22:41.279Z,9.68
2023-04-11T15:24:43.104Z,9.04
2023-04-11T15:26:44.757Z,8.59
2023-04-11T15:28:47.259Z,8.39
2023-04-11T15:30:50.977Z,8.33
2023-04-11T15:32:52.502Z,8.35
2023-04-11T15:34:55.375Z,8.37
2023-04-11T15:36:56.881Z,8.47
2023-04-11T15:38:59.836Z,8.64
2023-04-11T15:41:01.545Z,8.73
2023-04-11T15:43:04.342Z,8.92
2023-04-11T15:45:06.735Z,9.12
2023-04-11T15:47:08.429Z,9.47
2023-04-11T15:49:09.950Z,9.58
2023-04-11T15:51:12.944Z,9.72
2023-04-11T15:53:14.723Z,9.82
2023-04-11T15:55:16.596Z,9.81
2023-04-11T15:57:18.593Z,9.71
2023-04-11T15:59:20.113Z,9.64
2023-04-11T16:01:25.728Z,9.50
2023-04-11T16:03:31.776Z,9.38
2023-04-11T16:05:33.905Z,9.32
2023-04-11T16:07:35.598Z,9.31
2023-04-11T16:09:37.159Z,9.41
2023-04-11T16:11:39.953Z,9.56
2023-04-11T16:13:44.025Z,9.55
2023-04-11T16:15:45.669Z,9.54
2023-04-11T16:17:47.556Z,9.48
2023-04-11T16:19:51.561Z,9.41
2023-04-11T16:21:53.634Z,9.31
2023-04-11T16:23:55.399Z,9.25
2023-04-11T16:25:57.361Z,9.36
2023-04-11T16:27:58.913Z,9.63
2023-04-11T16:30:03.125Z,9.85
2023-04-11T16:32:04.958Z,9.91
2023-04-11T16:34:06.723Z,9.88
2023-04-11T16:36:08.580Z,9.89
2023-04-11T16:38:10.102Z,9.93
2023-04-11T16:40:11.968Z,9.94
2023-04-11T16:42:14.206Z,9.85
2023-04-11T16:44:16.388Z,9.75
2023-04-11T16:46:17.931Z,9.68
2023-04-11T16:48:19.436Z,9.70
2023-04-11T16:50:21.295Z,9.83
2023-04-11T16:52:22.792Z,10.01
2023-04-11T16:54:24.272Z,10.15
2023-04-11T16:56:26.908Z,10.23
2023-04-11T16:58:31.128Z,10.31
2023-04-11T17:00:32.619Z,10.36
2023-04-11T17:02:34.216Z,10.36
2023-04-11T17:04:36.231Z,10.37
2023-04-11T17:06:37.907Z,10.36
2023-04-11T17:08:41.250Z,10.35
2023-04-11T17:10:42.850Z,10.30
2023-04-11T17:12:44.411Z,10.25
2023-04-11T17:14:47.565Z,10.16
2023-04-11T17:16:49.080Z,10.06
2023-04-11T17:18:50.563Z,9.93
2023-04-11T17:20:52.640Z,9.86
2023-04-11T17:22:54.120Z,9.82
2023-04-11T17:24:55.763Z,9.77
2023-04-11T17:26:58.034Z,9.72
2023-04-11T17:28:59.990Z,9.73
2023-04-11T17:31:02.218Z,9.77
2023-04-11T17:33:04.223Z,9.81
2023-04-11T17:35:06.720Z,9.82
2023-04-11T17:37:08.318Z,9.84
2023-04-11T17:39:16.985Z,9.83
2023-04-11T17:41:18.441Z,9.80
2023-04-11T17:43:20.033Z,9.77
2023-04-11T17:45:22.384Z,9.73
2023-04-11T17:47:24.016Z,9.69
2023-04-11T17:49:27.242Z,9.65
2023-04-11T17:51:29.361Z,9.61
2023-04-11T17:53:31.133Z,9.55
2023-04-11T17:55:33.121Z,9.45
2023-04-11T17:57:34.873Z,9.40
2023-04-11T17:59:36.376Z,9.33
2023-04-11T18:01:37.926Z,9.27
2023-04-11T18:03:40.243Z,9.19
2023-04-11T18:05:42.001Z,9.13
2023-04-11T18:07:45.050Z,9.10
2023-04-11T18:09:46.521Z,9.05
2023-04-11T18:11:47.996Z,8.98
2023-04-11T18:13:50.445Z,8.88
2023-04-11T18:15:52.433Z,8.80
2023-04-11T18:17:54.430Z,8.75
2023-04-11T18:19:56.716Z,8.70
2023-04-11T18:21:58.318Z,8.61
2023-04-11T18:23:59.771Z,8.57
2023-04-11T18:26:01.223Z,8.49
2023-04-11T18:28:03.335Z,8.46
2023-04-11T18:30:16.420Z,8.39
2023-04-11T18:32:21.149Z,8.27
2023-04-11T18:34:24.708Z,8.17
2023-04-11T18:36:26.406Z,8.10
2023-04-11T18:38:27.987Z,8.08
2023-04-11T18:40:29.858Z,8.05
2023-04-11T18:42:31.574Z,8.02
2023-04-11T18:44:34.149Z,7.99
2023-04-11T18:46:36.261Z,7.93
2023-04-11T18:48:38.046Z,7.85
2023-04-11T18:50:42.905Z,7.80
2023-04-11T18:52:45.622Z,7.77
2023-04-11T18:54:47.807Z,7.75
2023-04-11T18:56:51.483Z,7.69
2023-04-11T18:58:57.940Z,7.62
2023-04-11T19:01:14.639Z,7.53
2023-04-11T19:03:18.994Z,7.48
2023-04-11T19:05:20.996Z,7.46
2023-04-11T19:07:23.090Z,7.44
2023-04-11T19:09:24.621Z,7.40
2023-04-11T19:11:26.200Z,7.35
2023-04-11T19:13:27.745Z,7.31
2023-04-11T19:15:29.635Z,7.30
2023-04-11T19:17:31.234Z,7.27
2023-04-11T19:19:32.780Z,7.21
2023-04-11T19:21:34.309Z,7.18
2023-04-11T19:23:35.891Z,7.14
2023-04-11T19:25:37.430Z,7.09
2023-04-11T19:27:41.494Z,7.04
2023-04-11T19:29:43.330Z,7.00
2023-04-11T19:31:44.834Z,6.95
2023-04-11T19:33:46.612Z,6.90
2023-04-11T19:35:48.173Z,6.86
2023-04-11T19:37:49.742Z,6.81
2023-04-11T19:39:51.328Z,6.76
2023-04-11T19:41:53.108Z,6.74
2023-04-11T19:43:54.630Z,6.68
2023-04-11T19:45:56.275Z,6.65
2023-04-11T19:47:57.864Z,6.61
2023-04-11T19:50:00.860Z,6.58
2023-04-11T19:52:02.779Z,6.55
2023-04-11T19:54:04.318Z,6.51
2023-04-11T19:56:07.910Z,6.46
2023-04-11T19:58:09.723Z,6.43
2023-04-11T20:00:17.062Z,6.39
2023-04-11T20:02:18.716Z,6.37
2023-04-11T20:04:21.393Z,6.33
2023-04-11T20:06:23.331Z,6.30
2023-04-11T20:08:30.449Z,6.26
2023-04-11T20:10:32.203Z,6.21
2023-04-11T20:12:34.531Z,6.19
2023-04-11T20:14:37.283Z,6.15
2023-04-11T20:16:38.772Z,6.09
2023-04-11T20:18:40.385Z,6.04
2023-04-11T20:20:42.163Z,5.99
2023-04-11T20:22:44.810Z,5.95
2023-04-11T20:24:47.127Z,5.90
2023-04-11T20:26:48.650Z,5.86
2023-04-11T20:28:50.430Z,5.82
2023-04-11T20:30:52.091Z,5.79
2023-04-11T20:32:54.216Z,5.76
2023-04-11T20:34:56.403Z,5.72
2023-04-11T20:37:01.024Z,5.69
2023-04-11T20:39:02.526Z,5.66
2023-04-11T20:41:05.718Z,5.63
2023-04-11T20:43:09.585Z,5.59
2023-04-11T20:45:16.840Z,5.56
2023-04-11T20:47:18.314Z,5.51
2023-04-11T20:49:20.644Z,5.48
2023-04-11T20:51:22.319Z,5.44
2023-04-11T20:53:24.396Z,5.41
2023-04-11T20:55:27.312Z,5.38
2023-04-11T20:57:33.603Z,5.35
2023-04-11T20:59:36.941Z,5.31
2023-04-11T21:01:38.731Z,5.27
2023-04-11T21:03:42.527Z,5.23
2023-04-11T21:05:46.516Z,5.17
2023-04-11T21:07:48.058Z,5.14
2023-04-11T21:09:50.244Z,5.10
2023-04-11T21:11:51.705Z,5.07
2023-04-11T21:13:54.678Z,5.03
2023-04-11T21:15:57.381Z,4.99
2023-04-11T21:17:58.973Z,4.95
2023-04-11T21:20:01.844Z,4.91
2023-04-11T21:22:04.175Z,4.88
2023-04-11T21:24:08.291Z,4.83
2023-04-11T21:26:09.779Z,4.81
2023-04-11T21:28:11.273Z,4.79
2023-04-11T21:30:14.064Z,4.76
2023-04-11T21:32:15.665Z,4.72
2023-04-11T21:34:17.325Z,4.69
2023-04-11T21:36:18.798Z,4.67
2023-04-11T21:38:20.375Z,4.65
2023-04-11T21:40:21.993Z,4.63
2023-04-11T21:42:23.636Z,4.61
2023-04-11T21:44:25.200Z,4.56
2023-04-11T21:46:26.731Z,4.54
2023-04-11T21:48:28.273Z,4.53
2023-04-11T21:50:29.749Z,4.51
2023-04-11T21:52:31.254Z,4.48
2023-04-11T21:54:34.016Z,4.45
2023-04-11T21:56:35.634Z,4.43
2023-04-11T21:58:37.274Z,4.40
2023-04-11T22:00:38.959Z,4.36
2023-04-11T22:02:41.267Z,4.35
2023-04-11T22:05:01.235Z,4.33
2023-04-11T22:07:06.261Z,4.30
2023-04-11T22:09:09.930Z,4.27
2023-04-11T22:11:14.177Z,4.26
2023-04-11T22:13:17.344Z,4.24
2023-04-11T22:15:18.927Z,4.22
2023-04-11T22:17:20.408Z,4.20
2023-04-11T22:19:21.898Z,4.18
2023-04-11T22:21:26.506Z,4.15
2023-04-11T22:23:27.980Z,4.13
2023-04-11T22:25:29.524Z,4.12
2023-04-11T22:27:34.610Z,4.08
2023-04-11T22:29:36.227Z,4.06
2023-04-11T22:31:38.942Z,4.03
2023-04-11T22:33:41.329Z,4.03
2023-04-11T22:35:47.716Z,4.01
2023-04-11T22:37:49.839Z,3.99
2023-04-11T22:39:51.492Z,3.99
2023-04-11T22:41:53.487Z,3.96
2023-04-11T22:43:55.290Z,3.96
2023-04-11T22:46:00.321Z,3.93
2023-04-11T22:48:06.086Z,3.95
2023-04-11T22:50:09.441Z,3.92
2023-04-11T22:52:15.369Z,3.90
2023-04-11T22:54:16.844Z,3.90
2023-04-11T22:56:18.418Z,3.89
2023-04-11T22:58:20.313Z,3.88
2023-04-11T23:00:23.990Z,3.86
2023-04-11T23:02:27.468Z,3.85
2023-04-11T23:04:31.640Z,3.85
2023-04-11T23:06:33.440Z,3.83
2023-04-11T23:08:34.966Z,3.84
2023-04-11T23:10:38.857Z,3.83
2023-04-11T23:12:41.448Z,3.84
2023-04-11T23:14:42.906Z,3.82
2023-04-11T23:16:44.948Z,3.83
2023-04-11T23:18:46.486Z,3.82
2023-04-11T23:20:49.381Z,3.82
2023-04-11T23:22:50.870Z,3.82
2023-04-11T23:24:54.956Z,3.81
2023-04-11T23:26:57.040Z,3.81
2023-04-11T23:28:58.594Z,3.81
2023-04-11T23:31:00.538Z,3.80
2023-04-11T23:33:02.831Z,3.79
2023-04-11T23:35:06.114Z,3.80
2023-04-11T23:37:07.841Z,3.79
2023-04-11T23:39:09.875Z,3.79
2023-04-11T23:41:11.373Z,3.79
2023-04-11T23:43:12.893Z,3.79
2023-04-11T23:45:15.126Z,3.79
2023-04-11T23:47:16.619Z,3.80
2023-04-11T23:49:18.116Z,3.78
2023-04-11T23:51:19.637Z,3.78
2023-04-11T23:53:21.291Z,3.78
2023-04-11T23:55:23.529Z,3.78
2023-04-11T23:57:25.130Z,3.77
2023-04-11T23:59:27.108Z,3.77
